TimeEDT,TemperatureF,Dew PointF,Humidity,Sea Level PressureIn,VisibilityMPH,Wind Direction,Wind SpeedMPH,Gust SpeedMPH,PrecipitationIn,Events,Conditions,WindDirDegrees,DateUTC
12:07 AM,73.4,71.6,94,30.03,10.0,Calm,Calm,-,N/A,,Scattered Clouds,0,2013-08-09 04:07:00
12:53 AM,72.0,71.1,97,30.00,10.0,Calm,Calm,-,N/A,,Clear,0,2013-08-09 04:53:00
1:53 AM,73.0,71.1,93,30.01,10.0,Calm,Calm,-,N/A,,Clear,0,2013-08-09 05:53:00
2:07 AM,71.6,71.6,100,30.04,10.0,Calm,Calm,-,N/A,,Partly Cloudy,0,2013-08-09 06:07:00
2:53 AM,72.0,71.1,97,30.01,10.0,Calm,Calm,-,N/A,,Partly Cloudy,0,2013-08-09 06:53:00
3:16 AM,71.6,69.8,94,30.04,10.0,Calm,Calm,-,N/A,,Mostly Cloudy,0,2013-08-09 07:16:00
3:53 AM,72.0,71.1,97,30.02,10.0,Calm,Calm,-,N/A,,Scattered Clouds,0,2013-08-09 07:53:00
4:53 AM,72.0,70.0,93,30.02,10.0,Calm,Calm,-,N/A,,Clear,0,2013-08-09 08:53:00
5:53 AM,72.0,70.0,93,30.02,7.0,Calm,Calm,-,N/A,,Mostly Cloudy,0,2013-08-09 09:53:00
6:53 AM,72.0,70.0,93,30.03,5.0,Calm,Calm,-,N/A,,Mostly Cloudy,0,2013-08-09 10:53:00
7:53 AM,73.0,70.0,90,30.05,5.0,Calm,Calm,-,N/A,Fog,Patches of Fog,0,2013-08-09 11:53:00
8:19 AM,73.4,71.6,94,30.07,5.0,Calm,Calm,-,N/A,Fog,Patches of Fog,0,2013-08-09 12:19:00
8:28 AM,73.4,71.6,94,30.08,5.0,Calm,Calm,-,N/A,Fog,Patches of Fog,0,2013-08-09 12:28:00
8:53 AM,73.9,72.0,93,30.06,2.5,Calm,Calm,-,N/A,Fog,Patches of Fog,0,2013-08-09 12:53:00
9:53 AM,78.1,73.9,87,30.07,4.0,Calm,Calm,-,N/A,Fog,Patches of Fog,0,2013-08-09 13:53:00
10:53 AM,81.0,75.0,82,30.06,5.0,South,6.9,-,N/A,,Haze,170,2013-08-09 14:53:00
11:37 AM,82.4,75.2,79,30.09,7.0,SSW,6.9,-,N/A,,Mostly Cloudy,200,2013-08-09 15:37:00
11:53 AM,84.0,75.0,74,30.06,7.0,SW,4.6,-,N/A,,Mostly Cloudy,220,2013-08-09 15:53:00
12:27 PM,84.2,75.2,74,30.08,7.0,SW,4.6,-,N/A,,Mostly Cloudy,220,2013-08-09 16:27:00
12:53 PM,87.1,73.9,65,30.04,10.0,Variable,3.5,-,N/A,,Mostly Cloudy,0,2013-08-09 16:53:00
1:13 PM,87.8,73.4,62,30.06,10.0,South,12.7,-,N/A,,Mostly Cloudy,190,2013-08-09 17:13:00
1:53 PM,88.0,73.0,61,30.03,10.0,SSE,9.2,-,N/A,,Mostly Cloudy,150,2013-08-09 17:53:00
2:53 PM,89.1,73.9,61,30.01,10.0,SSW,13.8,17.3,N/A,,Mostly Cloudy,200,2013-08-09 18:53:00
3:53 PM,89.1,73.0,59,30.00,10.0,South,8.1,-,N/A,,Mostly Cloudy,180,2013-08-09 19:53:00
4:53 PM,90.0,73.0,57,29.99,10.0,South,9.2,-,N/A,,Mostly Cloudy,170,2013-08-09 20:53:00
5:53 PM,89.1,72.0,57,29.98,10.0,South,9.2,-,N/A,,Mostly Cloudy,190,2013-08-09 21:53:00
6:53 PM,89.1,73.0,59,29.99,10.0,South,9.2,-,N/A,,Mostly Cloudy,190,2013-08-09 22:53:00
7:53 PM,87.1,73.0,63,30.01,10.0,Variable,5.8,-,N/A,,Mostly Cloudy,0,2013-08-09 23:53:00
7:57 PM,86.0,73.4,66,30.03,10.0,West,9.2,-,N/A,Thunderstorm,Thunderstorm,260,2013-08-09 23:57:00
8:51 PM,80.6,73.4,79,30.04,7.0,Calm,Calm,-,0.00,,Mostly Cloudy,0,2013-08-10 00:51:00
8:53 PM,80.1,73.0,79,30.02,7.0,Calm,Calm,-,0.00,Thunderstorm,Thunderstorm,0,2013-08-10 00:53:00
9:48 PM,80.6,73.4,79,30.07,10.0,Calm,Calm,-,N/A,,Mostly Cloudy,0,2013-08-10 01:48:00
9:53 PM,80.1,73.0,79,30.05,10.0,Calm,Calm,-,N/A,,Mostly Cloudy,0,2013-08-10 01:53:00
10:53 PM,79.0,73.9,84,30.06,10.0,Calm,Calm,-,N/A,,Mostly Cloudy,0,2013-08-10 02:53:00
11:53 PM,78.1,75.0,90,30.07,10.0,Calm,Calm,-,N/A,,Mostly Cloudy,0,2013-08-10 03:53:00